createdAt,value
2022-10-04T00:00:26.443Z,17.40
2022-10-04T00:02:49.727Z,17.72
2022-10-04T00:05:15.075Z,17.42
2022-10-04T00:07:41.675Z,17.68
2022-10-04T00:10:06.487Z,18.10
2022-10-04T00:12:33.663Z,18.42
2022-10-04T00:14:58.587Z,18.35
2022-10-04T00:17:23.542Z,18.39
2022-10-04T00:19:47.165Z,18.57
2022-10-04T00:22:12.721Z,18.10
2022-10-04T00:24:37.947Z,17.79
2022-10-04T00:27:21.108Z,17.69
2022-10-04T00:29:44.321Z,17.93
2022-10-04T00:32:29.793Z,17.98
2022-10-04T00:34:53.130Z,17.78
2022-10-04T00:37:16.325Z,17.78
2022-10-04T00:39:44.442Z,17.65
2022-10-04T00:42:37.298Z,17.65
2022-10-04T00:45:01.541Z,17.54
2022-10-04T00:47:31.798Z,17.65
2022-10-04T00:49:57.251Z,17.51
2022-10-04T00:52:21.057Z,17.33
2022-10-04T00:54:47.759Z,17.18
2022-10-04T00:57:12.510Z,17.30
2022-10-04T00:59:36.464Z,17.67
2022-10-04T01:02:01.744Z,17.68
2022-10-04T01:04:31.264Z,17.48
2022-10-04T01:06:54.545Z,17.29
2022-10-04T01:09:17.658Z,17.38
2022-10-04T01:11:43.635Z,17.31
2022-10-04T01:14:09.700Z,17.04
2022-10-04T01:16:34.022Z,17.15
2022-10-04T01:18:57.511Z,17.29
2022-10-04T01:21:27.241Z,17.00
2022-10-04T01:23:52.059Z,17.07
2022-10-04T01:26:40.550Z,17.06
2022-10-04T01:29:06.586Z,16.95
2022-10-04T01:31:29.912Z,16.89
2022-10-04T01:33:53.121Z,16.77
2022-10-04T01:36:16.498Z,16.78
2022-10-04T01:38:39.667Z,16.77
2022-10-04T01:41:04.954Z,16.93
2022-10-04T01:43:30.557Z,16.99
2022-10-04T01:45:55.966Z,16.98
2022-10-04T01:48:22.197Z,17.04
2022-10-04T01:50:47.390Z,17.12
2022-10-04T01:53:14.390Z,16.99
2022-10-04T01:55:37.575Z,17.05
2022-10-04T01:58:04.199Z,17.51
2022-10-04T02:00:33.242Z,17.71
2022-10-04T02:02:57.868Z,17.58
2022-10-04T02:05:22.299Z,17.15
2022-10-04T02:07:45.506Z,16.94
2022-10-04T02:10:10.838Z,17.11
2022-10-04T02:12:34.119Z,17.13
2022-10-04T02:14:59.269Z,17.16
2022-10-04T02:17:23.119Z,17.05
2022-10-04T02:19:46.266Z,16.92
2022-10-04T02:22:10.503Z,16.78
2022-10-04T02:24:34.528Z,16.80
2022-10-04T02:26:57.729Z,17.26
2022-10-04T02:29:21.244Z,17.68
2022-10-04T02:32:03.341Z,17.96
2022-10-04T02:34:26.614Z,18.04
2022-10-04T02:36:51.823Z,17.81
2022-10-04T02:39:16.592Z,17.62
2022-10-04T02:41:40.918Z,17.35
2022-10-04T02:44:05.327Z,17.13
2022-10-04T02:46:29.734Z,17.21
2022-10-04T02:48:54.946Z,17.32
2022-10-04T02:51:20.955Z,17.27
2022-10-04T02:53:49.361Z,17.09
2022-10-04T02:56:13.114Z,17.08
2022-10-04T02:58:38.304Z,16.92
2022-10-04T03:01:01.895Z,16.77
2022-10-04T03:03:26.047Z,16.64
2022-10-04T03:05:57.498Z,16.58
2022-10-04T03:08:20.649Z,16.46
2022-10-04T03:10:43.924Z,16.60
2022-10-04T03:13:07.460Z,16.51
2022-10-04T03:15:30.710Z,16.89
2022-10-04T03:17:53.917Z,17.16
2022-10-04T03:20:21.287Z,17.36
2022-10-04T03:22:47.301Z,17.11
2022-10-04T03:25:11.203Z,17.04
2022-10-04T03:27:35.344Z,17.08
2022-10-04T03:29:59.589Z,17.07
2022-10-04T03:32:22.859Z,16.96
2022-10-04T03:34:51.725Z,16.76
2022-10-04T03:37:16.225Z,16.77
2022-10-04T03:39:41.660Z,16.72
2022-10-04T03:42:06.308Z,16.51
2022-10-04T03:44:29.231Z,16.73
2022-10-04T03:46:52.437Z,16.62
2022-10-04T03:49:26.909Z,16.45
2022-10-04T03:51:50.559Z,16.82
2022-10-04T03:54:13.705Z,16.74
2022-10-04T03:56:38.324Z,16.78
2022-10-04T03:59:03.026Z,16.72
2022-10-04T04:01:29.509Z,16.71
2022-10-04T04:03:58.604Z,16.75
2022-10-04T04:06:21.758Z,16.57
2022-10-04T04:08:45.785Z,16.66
2022-10-04T04:11:11.450Z,16.69
2022-10-04T04:13:45.658Z,16.75
2022-10-04T04:16:10.182Z,16.59
2022-10-04T04:18:34.489Z,16.59
2022-10-04T04:20:59.233Z,16.64
2022-10-04T04:23:24.520Z,16.75
2022-10-04T04:25:49.669Z,16.43
2022-10-04T04:28:19.082Z,16.59
2022-10-04T04:30:46.717Z,16.62
2022-10-04T04:33:12.553Z,16.71
2022-10-04T04:35:36.404Z,16.79
2022-10-04T04:38:15.609Z,16.79
2022-10-04T04:40:38.938Z,16.87
2022-10-04T04:43:02.630Z,17.10
2022-10-04T04:45:26.737Z,17.21
2022-10-04T04:47:53.078Z,16.96
2022-10-04T04:50:17.424Z,16.77
2022-10-04T04:52:40.590Z,16.54
2022-10-04T04:55:03.916Z,16.39
2022-10-04T04:57:27.093Z,16.43
2022-10-04T04:59:52.150Z,16.62
2022-10-04T05:02:29.625Z,16.46
2022-10-04T05:05:09.103Z,16.32
2022-10-04T05:07:32.316Z,16.12
2022-10-04T05:09:55.508Z,16.26
2022-10-04T05:12:19.946Z,16.47
2022-10-04T05:14:46.485Z,16.71
2022-10-04T05:17:17.439Z,16.98
2022-10-04T05:19:40.746Z,16.95
2022-10-04T05:22:09.124Z,17.03
2022-10-04T05:24:33.085Z,17.15
2022-10-04T05:26:57.674Z,17.35
2022-10-04T05:29:22.711Z,17.39
2022-10-04T05:31:48.024Z,17.53
2022-10-04T05:34:19.675Z,17.59
2022-10-04T05:36:48.303Z,17.34
2022-10-04T05:39:16.495Z,16.99
2022-10-04T05:41:42.300Z,16.88
2022-10-04T05:44:17.709Z,16.44
2022-10-04T05:46:44.065Z,16.50
2022-10-04T05:49:08.946Z,16.50
2022-10-04T05:51:37.639Z,16.40
2022-10-04T05:54:02.338Z,16.45
2022-10-04T05:56:37.674Z,16.44
2022-10-04T05:59:04.019Z,16.44
2022-10-04T06:01:37.452Z,16.45
2022-10-04T06:04:17.855Z,16.56
2022-10-04T06:06:42.217Z,16.64
2022-10-04T06:09:10.243Z,16.54
2022-10-04T06:11:42.385Z,16.70
2022-10-04T06:14:21.162Z,16.68
2022-10-04T06:16:56.542Z,16.79
2022-10-04T06:19:28.252Z,16.82
2022-10-04T06:22:02.397Z,16.83
2022-10-04T06:24:27.464Z,16.96
2022-10-04T06:26:53.861Z,16.94
2022-10-04T06:29:20.635Z,16.85
2022-10-04T06:32:08.960Z,17.05
2022-10-04T06:34:42.375Z,17.17
2022-10-04T06:37:12.648Z,17.49
2022-10-04T06:39:50.224Z,17.35
2022-10-04T06:42:34.200Z,17.37
2022-10-04T06:45:06.211Z,17.36
2022-10-04T06:47:37.910Z,17.44
2022-10-04T06:50:02.093Z,17.43
2022-10-04T06:52:54.867Z,17.47
2022-10-04T06:55:47.206Z,17.73
2022-10-04T06:58:33.136Z,17.62
2022-10-04T07:00:58.833Z,17.66
2022-10-04T07:03:23.531Z,17.76
2022-10-04T07:05:48.092Z,18.00
2022-10-04T07:08:13.706Z,18.22
2022-10-04T07:10:40.556Z,18.34
2022-10-04T07:13:19.812Z,18.30
2022-10-04T07:15:50.135Z,18.33
2022-10-04T07:18:15.820Z,18.42
2022-10-04T07:20:39.043Z,18.41
2022-10-04T07:23:04.490Z,18.27
2022-10-04T07:25:30.624Z,18.29
2022-10-04T07:28:15.929Z,18.26
2022-10-04T07:30:38.913Z,18.33
2022-10-04T07:33:03.495Z,18.28
2022-10-04T07:35:33.905Z,18.29
2022-10-04T07:38:01.707Z,18.17
2022-10-04T07:40:27.034Z,18.26
2022-10-04T07:42:51.979Z,18.37
2022-10-04T07:45:17.763Z,18.21
2022-10-04T07:47:41.519Z,18.08
2022-10-04T07:50:20.670Z,18.25
2022-10-04T07:52:48.980Z,18.44
2022-10-04T07:55:18.532Z,18.59
2022-10-04T07:57:45.125Z,18.29
2022-10-04T08:00:13.507Z,18.09
2022-10-04T08:02:42.045Z,18.17
2022-10-04T08:05:14.179Z,18.32
2022-10-04T08:07:46.411Z,18.24
2022-10-04T08:10:13.301Z,18.26
2022-10-04T08:12:43.755Z,18.08
2022-10-04T08:15:21.766Z,18.12
2022-10-04T08:17:51.112Z,18.13
2022-10-04T08:20:27.726Z,18.19
2022-10-04T08:23:00.307Z,18.28
2022-10-04T08:25:27.589Z,18.17
2022-10-04T08:28:15.957Z,18.18
2022-10-04T08:30:44.265Z,18.33
2022-10-04T08:33:08.052Z,18.40
2022-10-04T08:35:36.224Z,18.44
2022-10-04T08:38:27.572Z,18.53
2022-10-04T08:41:21.061Z,18.68
2022-10-04T08:44:23.726Z,18.73
2022-10-04T08:47:21.871Z,18.75
2022-10-04T08:50:24.357Z,18.60
2022-10-04T08:52:58.900Z,18.49
2022-10-04T08:55:53.827Z,18.65
2022-10-04T08:58:17.949Z,18.88
2022-10-04T09:01:01.136Z,19.04
2022-10-04T09:04:15.223Z,19.12
2022-10-04T09:06:42.460Z,19.16
2022-10-04T09:09:48.313Z,19.23
2022-10-04T09:12:37.284Z,19.22
2022-10-04T09:15:13.550Z,19.30
2022-10-04T09:17:40.545Z,19.34
2022-10-04T09:20:33.327Z,19.37
2022-10-04T09:22:51.530Z,19.40
2022-10-04T09:25:32.460Z,19.43
2022-10-04T09:28:20.774Z,19.46
2022-10-04T09:30:58.299Z,19.47
2022-10-04T09:33:40.270Z,19.47
2022-10-04T09:36:29.555Z,19.51
2022-10-04T09:39:31.127Z,19.53
2022-10-04T09:42:20.265Z,19.55
2022-10-04T09:45:21.512Z,19.57
2022-10-04T09:47:49.150Z,19.57
2022-10-04T09:50:39.719Z,19.51
2022-10-04T09:53:09.857Z,19.60
2022-10-04T09:55:44.386Z,19.61
2022-10-04T09:58:30.033Z,19.62
2022-10-04T10:00:56.650Z,19.53
2022-10-04T10:03:42.202Z,19.62
2022-10-04T10:06:28.302Z,19.63
2022-10-04T10:09:00.556Z,19.63
2022-10-04T10:11:45.865Z,19.65
2022-10-04T10:14:30.548Z,19.65
2022-10-04T10:17:00.141Z,19.66
2022-10-04T10:19:44.786Z,19.68
2022-10-04T10:22:19.647Z,19.68
2022-10-04T10:24:58.401Z,19.69
2022-10-04T10:27:38.026Z,19.59
2022-10-04T10:30:14.574Z,19.35
2022-10-04T10:32:45.952Z,19.67
2022-10-04T10:35:21.552Z,19.69
2022-10-04T10:37:51.993Z,19.68
2022-10-04T10:40:29.869Z,19.69
2022-10-04T10:43:05.839Z,19.69
2022-10-04T10:45:48.651Z,19.69
2022-10-04T10:48:17.904Z,19.70
2022-10-04T10:51:02.825Z,19.69
2022-10-04T10:53:48.255Z,19.70
2022-10-04T10:56:52.543Z,19.71
2022-10-04T10:59:59.642Z,19.71
2022-10-04T11:03:13.102Z,19.68
2022-10-04T11:06:08.494Z,19.73
2022-10-04T11:09:11.374Z,19.69
2022-10-04T11:12:18.870Z,19.74
2022-10-04T11:14:54.076Z,19.75
2022-10-04T11:17:31.001Z,19.75
2022-10-04T11:20:17.922Z,19.77
2022-10-04T11:23:17.345Z,19.77
2022-10-04T11:25:52.215Z,19.77
2022-10-04T11:28:17.160Z,19.75
2022-10-04T11:30:53.551Z,19.79
2022-10-04T11:33:55.843Z,19.80
2022-10-04T11:36:31.152Z,19.80
2022-10-04T11:39:31.669Z,19.82
2022-10-04T11:41:57.236Z,19.82
2022-10-04T11:45:06.463Z,19.82
2022-10-04T11:47:40.525Z,19.84
2022-10-04T11:50:22.840Z,19.83
2022-10-04T11:53:27.306Z,19.85
2022-10-04T11:56:04.328Z,19.81
2022-10-04T11:58:33.924Z,19.85
2022-10-04T12:01:19.972Z,19.86
2022-10-04T12:04:01.101Z,19.88
2022-10-04T12:06:35.761Z,19.86
2022-10-04T12:09:05.397Z,19.90
2022-10-04T12:12:13.189Z,19.89
2022-10-04T12:14:43.353Z,19.90
2022-10-04T12:17:46.220Z,19.90
2022-10-04T12:20:25.945Z,19.90
2022-10-04T12:23:03.430Z,19.88
2022-10-04T12:25:33.680Z,19.88
2022-10-04T12:28:21.634Z,19.89
2022-10-04T12:31:13.884Z,19.90
2022-10-04T12:33:39.274Z,19.86
2022-10-04T12:36:12.740Z,19.89
2022-10-04T12:38:49.708Z,19.90
2022-10-04T12:41:18.779Z,19.90
2022-10-04T12:43:45.673Z,19.85
2022-10-04T12:46:17.931Z,19.87
2022-10-04T12:48:48.289Z,19.89
2022-10-04T12:51:21.152Z,19.89
2022-10-04T12:53:48.637Z,19.89
2022-10-04T12:56:22.289Z,19.88
2022-10-04T12:59:04.649Z,19.88
2022-10-04T13:01:33.646Z,19.84
2022-10-04T13:04:06.281Z,19.87
2022-10-04T13:06:33.196Z,19.89
2022-10-04T13:09:02.629Z,19.89
2022-10-04T13:11:42.974Z,19.91
2022-10-04T13:14:17.842Z,19.88
2022-10-04T13:19:31.597Z,19.88
2022-10-04T13:22:12.942Z,19.81
2022-10-04T13:27:34.683Z,19.88
2022-10-04T13:30:02.419Z,19.85
2022-10-04T13:32:27.252Z,19.86
2022-10-04T13:34:53.009Z,19.86
2022-10-04T13:37:29.418Z,19.80
2022-10-04T13:40:05.408Z,19.87
2022-10-04T13:42:55.360Z,19.90
2022-10-04T13:45:31.709Z,19.88
2022-10-04T13:48:01.719Z,19.88
2022-10-04T13:50:36.371Z,19.90
2022-10-04T13:53:23.501Z,19.87
2022-10-04T13:56:06.986Z,19.90
2022-10-04T13:58:36.632Z,19.88
2022-10-04T14:01:15.480Z,19.89
2022-10-04T14:03:47.708Z,19.86
2022-10-04T14:06:21.953Z,19.90
2022-10-04T14:08:52.715Z,19.88
2022-10-04T14:12:03.200Z,19.87
2022-10-04T14:15:06.168Z,19.89
2022-10-04T14:17:50.902Z,19.89
2022-10-04T14:20:59.867Z,19.88
2022-10-04T14:23:53.948Z,19.88
2022-10-04T14:26:58.640Z,19.88
2022-10-04T14:29:45.244Z,19.81
2022-10-04T14:32:38.499Z,19.90
2022-10-04T14:35:05.025Z,19.91
2022-10-04T14:37:46.533Z,19.91
2022-10-04T14:40:21.596Z,19.91
2022-10-04T14:43:20.406Z,19.92
2022-10-04T14:46:02.756Z,19.91
2022-10-04T14:48:43.053Z,19.93
2022-10-04T14:51:26.688Z,19.94
2022-10-04T14:53:54.921Z,19.93
2022-10-04T14:56:26.363Z,19.93
2022-10-04T14:58:55.277Z,19.94
2022-10-04T15:01:21.988Z,19.94
2022-10-04T15:03:50.081Z,19.89
2022-10-04T15:06:21.312Z,19.95
2022-10-04T15:09:03.601Z,19.94
2022-10-04T15:11:39.858Z,19.96
2022-10-04T15:14:05.314Z,19.96
2022-10-04T15:16:34.992Z,19.97
2022-10-04T15:19:00.234Z,19.97
2022-10-04T15:21:45.029Z,19.97
2022-10-04T15:24:24.323Z,19.96
2022-10-04T15:26:53.515Z,19.96
2022-10-04T15:29:24.207Z,19.98
2022-10-04T15:31:53.601Z,19.97
2022-10-04T15:34:27.615Z,19.95
2022-10-04T15:37:12.225Z,19.78
2022-10-04T15:40:07.381Z,19.86
2022-10-04T15:42:31.406Z,19.90
2022-10-04T15:45:02.402Z,19.93
2022-10-04T15:47:26.494Z,19.95
2022-10-04T15:49:54.841Z,19.93
2022-10-04T15:52:43.231Z,19.88
2022-10-04T15:55:19.208Z,19.95
2022-10-04T15:58:03.067Z,19.93
2022-10-04T16:00:27.179Z,19.37
2022-10-04T16:03:11.034Z,19.17
2022-10-04T16:05:39.468Z,19.23
2022-10-04T16:08:53.420Z,19.24
2022-10-04T16:11:36.834Z,18.90
2022-10-04T16:14:10.931Z,18.96
2022-10-04T16:16:50.218Z,19.23
2022-10-04T16:19:20.478Z,19.20
2022-10-04T16:21:50.422Z,19.20
2022-10-04T16:24:41.899Z,19.42
2022-10-04T16:27:24.063Z,19.49
2022-10-04T16:30:08.237Z,19.30
2022-10-04T16:32:39.810Z,19.16
2022-10-04T16:35:03.414Z,19.23
2022-10-04T16:37:29.736Z,19.33
2022-10-04T16:40:02.572Z,19.35
2022-10-04T16:42:30.745Z,19.20
2022-10-04T16:44:55.391Z,19.00
2022-10-04T16:47:21.502Z,19.22
2022-10-04T16:49:50.917Z,19.24
2022-10-04T16:52:48.502Z,18.81
2022-10-04T16:55:22.176Z,18.51
2022-10-04T16:57:47.584Z,18.43
2022-10-04T17:00:43.760Z,18.44
2022-10-04T17:03:18.741Z,18.61
2022-10-04T17:05:54.603Z,18.73
2022-10-04T17:08:25.663Z,18.64
2022-10-04T17:11:14.565Z,18.74
2022-10-04T17:13:48.291Z,18.54
2022-10-04T17:16:13.804Z,18.41
2022-10-04T17:18:39.543Z,18.60
2022-10-04T17:21:06.036Z,18.63
2022-10-04T17:23:52.081Z,18.57
2022-10-04T17:26:20.171Z,18.41
2022-10-04T17:28:47.349Z,18.35
2022-10-04T17:31:12.196Z,18.15
2022-10-04T17:33:42.778Z,18.10
2022-10-04T17:36:23.945Z,17.98
2022-10-04T17:38:52.398Z,18.01
2022-10-04T17:41:18.673Z,18.11
2022-10-04T17:43:58.873Z,18.05
2022-10-04T17:46:23.166Z,17.97
2022-10-04T17:49:05.114Z,17.89
2022-10-04T17:51:57.137Z,18.28
2022-10-04T17:54:39.974Z,18.11
2022-10-04T17:57:22.824Z,18.17
2022-10-04T17:59:48.539Z,18.20
2022-10-04T18:02:12.334Z,17.96
2022-10-04T18:04:36.095Z,18.05
2022-10-04T18:07:02.785Z,17.87
2022-10-04T18:09:28.875Z,17.95
2022-10-04T18:11:52.809Z,17.78
2022-10-04T18:14:24.007Z,17.98
2022-10-04T18:16:51.031Z,17.85
2022-10-04T18:19:34.468Z,17.92
2022-10-04T18:21:57.981Z,17.74
2022-10-04T18:24:21.862Z,17.82
2022-10-04T18:26:56.732Z,18.17
2022-10-04T18:29:19.995Z,18.23
2022-10-04T18:31:43.182Z,18.23
2022-10-04T18:34:28.466Z,18.26
2022-10-04T18:36:54.434Z,18.25
2022-10-04T18:39:19.538Z,18.40
2022-10-04T18:41:53.082Z,18.48
2022-10-04T18:44:17.294Z,18.40
2022-10-04T18:46:41.180Z,17.97
2022-10-04T18:49:13.963Z,18.00
2022-10-04T18:51:40.233Z,18.22
2022-10-04T18:54:12.585Z,18.04
2022-10-04T18:56:37.775Z,17.86
2022-10-04T18:59:24.955Z,17.74
2022-10-04T19:02:01.057Z,17.67
2022-10-04T19:04:28.061Z,17.49
2022-10-04T19:06:52.630Z,17.61
2022-10-04T19:09:20.215Z,17.42
2022-10-04T19:11:45.345Z,17.42
2022-10-04T19:14:17.964Z,17.42
2022-10-04T19:16:43.953Z,17.50
2022-10-04T19:19:31.283Z,17.48
2022-10-04T19:21:59.208Z,17.55
2022-10-04T19:24:49.637Z,17.90
2022-10-04T19:27:18.505Z,17.65
2022-10-04T19:29:52.564Z,17.50
2022-10-04T19:32:21.658Z,17.41
2022-10-04T19:34:48.129Z,17.31
2022-10-04T19:37:16.103Z,17.16
2022-10-04T19:39:43.405Z,17.14
2022-10-04T19:42:09.832Z,17.26
2022-10-04T19:44:47.811Z,17.14
2022-10-04T19:47:20.570Z,17.12
2022-10-04T19:49:46.899Z,17.33
2022-10-04T19:52:22.318Z,17.38
2022-10-04T19:54:48.490Z,17.18
2022-10-04T19:57:14.926Z,17.07
2022-10-04T19:59:41.267Z,16.93
2022-10-04T20:02:09.496Z,17.27
2022-10-04T20:04:39.433Z,17.32
2022-10-04T20:07:03.830Z,17.27
2022-10-04T20:09:33.102Z,17.36
2022-10-04T20:11:56.283Z,17.70
2022-10-04T20:14:55.914Z,17.70
2022-10-04T20:17:32.896Z,17.36
2022-10-04T20:19:56.059Z,17.47
2022-10-04T20:22:30.122Z,17.45
2022-10-04T20:24:56.317Z,17.18
2022-10-04T20:27:52.610Z,17.28
2022-10-04T20:30:16.645Z,17.34
2022-10-04T20:32:59.078Z,17.55
2022-10-04T20:36:05.883Z,17.60
2022-10-04T20:39:02.184Z,17.48
2022-10-04T20:42:03.226Z,17.28
2022-10-04T20:44:45.633Z,17.64
2022-10-04T20:47:27.948Z,17.44
2022-10-04T20:49:51.538Z,17.72
2022-10-04T20:52:15.214Z,17.86
2022-10-04T20:54:38.385Z,17.70
2022-10-04T20:57:03.001Z,17.81
2022-10-04T20:59:25.969Z,18.01
2022-10-04T21:02:03.897Z,18.10
2022-10-04T21:04:31.490Z,18.13
2022-10-04T21:06:55.204Z,18.04
2022-10-04T21:09:18.510Z,17.83
2022-10-04T21:11:45.326Z,18.03
2022-10-04T21:14:22.029Z,17.74
2022-10-04T21:16:47.464Z,17.78
2022-10-04T21:19:53.524Z,17.72
2022-10-04T21:22:35.676Z,17.43
2022-10-04T21:24:59.418Z,17.63
2022-10-04T21:27:26.962Z,17.54
2022-10-04T21:29:53.610Z,17.34
2022-10-04T21:32:16.772Z,17.20
2022-10-04T21:34:53.022Z,17.44
2022-10-04T21:37:17.318Z,17.68
2022-10-04T21:39:40.442Z,17.76
2022-10-04T21:42:03.610Z,17.25
2022-10-04T21:44:26.778Z,17.46
2022-10-04T21:46:51.406Z,17.57
2022-10-04T21:49:14.362Z,17.90
2022-10-04T21:51:37.568Z,18.05
2022-10-04T21:54:00.687Z,18.07
2022-10-04T21:56:23.936Z,17.46
2022-10-04T21:58:47.143Z,17.51
2022-10-04T22:01:10.354Z,17.62
2022-10-04T22:03:34.904Z,17.87
2022-10-04T22:05:57.908Z,17.67
2022-10-04T22:08:21.034Z,17.49
2022-10-04T22:10:45.660Z,17.53
2022-10-04T22:13:08.566Z,17.63
2022-10-04T22:15:31.793Z,17.81
2022-10-04T22:17:55.136Z,17.97
2022-10-04T22:20:19.851Z,17.73
2022-10-04T22:22:42.989Z,17.38
2022-10-04T22:25:14.731Z,16.88
2022-10-04T22:27:37.946Z,16.87
2022-10-04T22:30:01.054Z,16.84
2022-10-04T22:32:25.054Z,16.83
2022-10-04T22:34:48.303Z,16.81
2022-10-04T22:37:12.931Z,17.11
2022-10-04T22:39:36.173Z,17.26
2022-10-04T22:42:00.281Z,17.53
2022-10-04T22:44:24.610Z,17.45
2022-10-04T22:46:50.676Z,17.44
2022-10-04T22:49:14.487Z,17.37
2022-10-04T22:51:37.812Z,17.09
2022-10-04T22:54:02.341Z,17.10
2022-10-04T22:56:25.823Z,16.79
2022-10-04T22:58:48.999Z,16.59
2022-10-04T23:01:13.403Z,16.50
2022-10-04T23:03:38.228Z,16.69
2022-10-04T23:06:01.888Z,16.71
2022-10-04T23:08:25.154Z,17.00
2022-10-04T23:10:49.696Z,16.72
2022-10-04T23:13:12.702Z,16.87
2022-10-04T23:15:35.995Z,16.90
2022-10-04T23:17:59.189Z,16.95
2022-10-04T23:20:22.634Z,17.35
2022-10-04T23:22:46.179Z,17.48
2022-10-04T23:25:14.690Z,17.59
2022-10-04T23:27:39.262Z,17.52
2022-10-04T23:30:02.681Z,17.62
2022-10-04T23:32:26.777Z,16.85
2022-10-04T23:34:55.653Z,17.13
2022-10-04T23:37:21.086Z,16.98
2022-10-04T23:39:44.377Z,16.54
2022-10-04T23:42:12.138Z,16.60
2022-10-04T23:44:37.164Z,17.10
2022-10-04T23:47:00.414Z,17.07
2022-10-04T23:49:23.674Z,17.30
2022-10-04T23:51:47.094Z,17.08
2022-10-04T23:54:12.990Z,17.20
2022-10-04T23:56:36.137Z,17.20
2022-10-04T23:58:59.481Z,17.16
